Time;durP1;ratioP1;P1;durP2;ratioP2;P2;SDS_P1;SDS_P2;PMS_P1;PMS_P2;Temp;Humidity;BMP_temperature;BMP_pressure;BME280_temperature;BME280_humidity;BME280_pressure;Samples;Min_cycle;Max_cycle;Signal;HPM_P1;HPM_P2
2022/03/08 00:00:45;;;;;;;23.63;18.50;;;;;;;;;;5051718;28;20480;-79
2022/03/08 00:03:12;;;;;;;26.27;19.83;;;;;;;;;;5051092;28;20456;-79
2022/03/08 00:05:40;;;;;;;24.10;19.40;;;;;;;;;;5051971;28;20438;-78
2022/03/08 00:08:08;;;;;;;28.20;20.80;;;;;;;;;;5053256;28;21319;-80
2022/03/08 00:10:35;;;;;;;23.60;20.40;;;;;;;;;;5053007;28;20799;-78
2022/03/08 00:13:02;;;;;;;23.53;19.00;;;;;;;;;;5052191;28;20470;-78
2022/03/08 00:15:30;;;;;;;25.20;19.43;;;;;;;;;;5052781;28;20454;-78
2022/03/08 00:17:57;;;;;;;21.23;18.90;;;;;;;;;;5052588;28;20457;-79
2022/03/08 00:20:25;;;;;;;25.97;19.47;;;;;;;;;;5051160;28;20452;-79
2022/03/08 00:22:52;;;;;;;26.20;19.67;;;;;;;;;;5050837;28;20466;-78
2022/03/08 00:25:20;;;;;;;25.10;19.97;;;;;;;;;;5050735;28;20450;-79
2022/03/08 00:27:48;;;;;;;30.30;19.77;;;;;;;;;;5050871;28;20449;-78
2022/03/08 00:30:15;;;;;;;21.63;18.73;;;;;;;;;;5050018;28;20453;-79
2022/03/08 00:32:42;;;;;;;22.73;19.43;;;;;;;;;;5049612;28;21073;-78
2022/03/08 00:35:10;;;;;;;23.40;18.27;;;;;;;;;;5050037;28;20457;-79
2022/03/08 00:37:37;;;;;;;23.13;19.10;;;;;;;;;;5050587;28;20453;-80
2022/03/08 00:40:04;;;;;;;22.67;18.60;;;;;;;;;;5049877;28;20467;-78
2022/03/08 00:42:33;;;;;;;23.30;19.17;;;;;;;;;;5049734;28;20454;-79
2022/03/08 00:45:00;;;;;;;24.47;19.87;;;;;;;;;;5050540;28;20457;-80
2022/03/08 00:47:27;;;;;;;22.23;18.50;;;;;;;;;;5049907;28;21026;-78
2022/03/08 00:49:54;;;;;;;25.00;19.87;;;;;;;;;;5050485;28;20510;-78
2022/03/08 00:52:21;;;;;;;20.90;18.43;;;;;;;;;;5049511;28;20461;-79
2022/03/08 00:54:48;;;;;;;22.97;18.00;;;;;;;;;;5049372;28;20485;-78
2022/03/08 00:57:15;;;;;;;23.03;18.80;;;;;;;;;;5049921;28;20476;-78
2022/03/08 00:59:44;;;;;;;23.97;18.40;;;;;;;;;;5049983;28;21005;-78
2022/03/08 01:02:11;;;;;;;23.37;19.00;;;;;;;;;;5054607;28;20453;-80
2022/03/08 01:04:38;;;;;;;22.60;18.90;;;;;;;;;;5055617;28;20452;-79
2022/03/08 01:07:07;;;;;;;25.87;19.80;;;;;;;;;;5058145;28;20454;-78
2022/03/08 01:09:34;;;;;;;23.50;18.10;;;;;;;;;;5057952;28;20465;-79
2022/03/08 01:12:01;;;;;;;24.13;18.83;;;;;;;;;;5057106;28;20469;-79
2022/03/08 01:14:28;;;;;;;22.80;18.90;;;;;;;;;;5052291;28;20481;-78
2022/03/08 01:16:56;;;;;;;23.50;18.20;;;;;;;;;;5050785;28;20453;-79
2022/03/08 01:19:23;;;;;;;23.23;19.20;;;;;;;;;;5050784;28;20597;-79
2022/03/08 01:21:50;;;;;;;24.33;18.43;;;;;;;;;;5049875;28;21183;-79
2022/03/08 01:24:17;;;;;;;22.93;18.33;;;;;;;;;;5050280;28;20946;-77
2022/03/08 01:26:44;;;;;;;22.00;19.10;;;;;;;;;;5049484;28;20445;-79
2022/03/08 01:29:11;;;;;;;22.60;17.30;;;;;;;;;;5049438;28;20464;-78
2022/03/08 01:31:39;;;;;;;23.73;18.30;;;;;;;;;;5049957;28;20832;-78
2022/03/08 01:34:07;;;;;;;23.07;17.87;;;;;;;;;;5049480;28;20815;-78
2022/03/08 01:36:34;;;;;;;22.60;16.67;;;;;;;;;;5049645;28;20778;-79
2022/03/08 01:39:01;;;;;;;20.53;17.10;;;;;;;;;;5049832;28;20450;-80
2022/03/08 01:41:28;;;;;;;19.77;16.67;;;;;;;;;;5049612;28;20482;-79
2022/03/08 01:43:55;;;;;;;19.13;15.47;;;;;;;;;;5049808;28;20439;-78
2022/03/08 01:46:22;;;;;;;22.50;17.60;;;;;;;;;;5049442;28;20449;-78
2022/03/08 01:48:49;;;;;;;19.47;16.57;;;;;;;;;;5049439;28;20430;-78
2022/03/08 01:51:18;;;;;;;17.83;15.20;;;;;;;;;;5049250;28;20461;-80
2022/03/08 01:53:45;;;;;;;18.87;16.77;;;;;;;;;;5049061;28;20477;-79
2022/03/08 01:56:12;;;;;;;18.53;15.80;;;;;;;;;;5049572;28;20883;-78
2022/03/08 01:58:39;;;;;;;21.17;16.13;;;;;;;;;;5049326;28;20482;-78
2022/03/08 02:01:07;;;;;;;19.70;15.60;;;;;;;;;;5050020;28;20949;-78
2022/03/08 02:03:35;;;;;;;18.73;16.23;;;;;;;;;;5051973;28;20953;-78
2022/03/08 02:06:03;;;;;;;22.23;17.57;;;;;;;;;;5053366;28;20542;-78
2022/03/08 02:08:31;;;;;;;23.30;17.33;;;;;;;;;;5053111;28;20453;-79
2022/03/08 02:10:58;;;;;;;23.10;18.00;;;;;;;;;;5053107;28;20457;-78
2022/03/08 02:13:26;;;;;;;24.83;15.93;;;;;;;;;;5052605;28;20579;-80
2022/03/08 02:15:53;;;;;;;19.43;16.87;;;;;;;;;;5052876;28;20532;-80
2022/03/08 02:18:21;;;;;;;17.90;15.40;;;;;;;;;;5053299;28;20450;-79
2022/03/08 02:20:48;;;;;;;22.23;17.67;;;;;;;;;;5053150;28;20445;-79
2022/03/08 02:23:17;;;;;;;21.37;16.40;;;;;;;;;;5052517;28;20489;-78
2022/03/08 02:25:44;;;;;;;19.30;15.13;;;;;;;;;;5052670;28;20890;-79
2022/03/08 02:28:11;;;;;;;17.70;15.20;;;;;;;;;;5052941;28;20449;-78
2022/03/08 02:30:38;;;;;;;19.00;15.73;;;;;;;;;;5052709;28;20450;-79
2022/03/08 02:33:05;;;;;;;18.20;15.90;;;;;;;;;;5052624;28;20473;-78
2022/03/08 02:35:32;;;;;;;17.77;15.10;;;;;;;;;;5052385;28;20933;-78
2022/03/08 02:38:01;;;;;;;18.17;14.37;;;;;;;;;;5052607;28;20430;-77
2022/03/08 02:40:30;;;;;;;17.93;15.47;;;;;;;;;;5052774;28;20436;-77
2022/03/08 02:42:57;;;;;;;18.87;14.17;;;;;;;;;;5052561;28;20462;-79
2022/03/08 02:45:24;;;;;;;17.50;15.40;;;;;;;;;;5052889;28;20444;-79
2022/03/08 02:47:52;;;;;;;19.67;15.73;;;;;;;;;;5052712;28;20441;-78
2022/03/08 02:50:19;;;;;;;18.53;15.40;;;;;;;;;;5052583;28;20452;-78
2022/03/08 02:52:47;;;;;;;19.10;15.27;;;;;;;;;;5055019;28;20450;-79
2022/03/08 02:55:15;;;;;;;17.60;15.30;;;;;;;;;;5061091;28;20469;-78
2022/03/08 02:57:43;;;;;;;18.53;15.40;;;;;;;;;;5067721;28;20443;-78
2022/03/08 03:00:11;;;;;;;17.27;15.47;;;;;;;;;;5058198;28;20880;-78
2022/03/08 03:02:38;;;;;;;17.70;15.23;;;;;;;;;;5053358;28;20520;-79
2022/03/08 03:05:06;;;;;;;18.30;15.33;;;;;;;;;;5052177;28;20461;-78
2022/03/08 03:07:33;;;;;;;20.53;15.03;;;;;;;;;;5053004;28;20464;-80
2022/03/08 03:10:00;;;;;;;17.40;14.57;;;;;;;;;;5066431;28;20445;-78
2022/03/08 03:12:27;;;;;;;19.80;16.27;;;;;;;;;;5073894;28;20465;-78
2022/03/08 03:14:56;;;;;;;17.63;15.20;;;;;;;;;;5058692;28;20499;-78
2022/03/08 03:17:23;;;;;;;17.07;14.80;;;;;;;;;;5061126;28;20445;-78
2022/03/08 03:19:50;;;;;;;22.47;16.37;;;;;;;;;;5067269;28;20507;-78
2022/03/08 03:22:17;;;;;;;19.63;16.63;;;;;;;;;;5063364;28;20469;-78
2022/03/08 03:24:44;;;;;;;19.13;15.43;;;;;;;;;;5052533;28;20437;-78
2022/03/08 03:27:11;;;;;;;18.97;15.13;;;;;;;;;;5051420;28;20450;-78
2022/03/08 03:29:38;;;;;;;19.50;15.07;;;;;;;;;;5051782;28;20454;-79
2022/03/08 03:32:07;;;;;;;20.07;15.60;;;;;;;;;;5055428;28;20527;-78
2022/03/08 03:34:34;;;;;;;21.90;15.80;;;;;;;;;;5055574;28;20473;-78
2022/03/08 03:37:01;;;;;;;19.67;15.23;;;;;;;;;;5056509;28;20461;-77
2022/03/08 03:39:28;;;;;;;17.80;16.03;;;;;;;;;;5055703;28;20738;-77
2022/03/08 03:41:55;;;;;;;19.00;15.33;;;;;;;;;;5054641;28;20477;-79
2022/03/08 03:44:22;;;;;;;16.53;14.70;;;;;;;;;;5053292;28;20433;-78
2022/03/08 03:46:49;;;;;;;18.20;14.47;;;;;;;;;;5051884;28;20775;-78
2022/03/08 03:49:18;;;;;;;19.37;14.90;;;;;;;;;;5051366;28;20942;-78
2022/03/08 03:51:46;;;;;;;18.17;14.33;;;;;;;;;;5051499;28;20465;-79
2022/03/08 03:54:13;;;;;;;15.70;14.10;;;;;;;;;;5050447;28;20886;-79
2022/03/08 03:56:40;;;;;;;24.60;15.80;;;;;;;;;;5050669;28;20861;-77
2022/03/08 03:59:07;;;;;;;20.80;15.80;;;;;;;;;;5050402;28;20442;-78
2022/03/08 04:01:34;;;;;;;16.13;14.43;;;;;;;;;;5050836;28;20462;-78
2022/03/08 04:04:01;;;;;;;19.73;15.57;;;;;;;;;;5050833;28;20794;-78
2022/03/08 04:06:30;;;;;;;20.17;14.93;;;;;;;;;;5050597;28;20964;-79
2022/03/08 04:08:58;;;;;;;17.20;13.70;;;;;;;;;;5050617;28;20812;-78
2022/03/08 04:11:25;;;;;;;18.63;15.63;;;;;;;;;;5051062;28;20462;-78
2022/03/08 04:13:52;;;;;;;17.93;15.07;;;;;;;;;;5050782;28;20503;-78
2022/03/08 04:16:19;;;;;;;16.87;14.90;;;;;;;;;;5050452;28;20445;-77
2022/03/08 04:18:46;;;;;;;21.13;15.27;;;;;;;;;;5050714;28;20445;-78
2022/03/08 04:21:13;;;;;;;19.10;14.70;;;;;;;;;;5052184;28;20452;-78
2022/03/08 04:23:41;;;;;;;18.33;14.73;;;;;;;;;;5051438;28;20446;-78
2022/03/08 04:26:08;;;;;;;18.47;15.30;;;;;;;;;;5050501;28;20871;-79
2022/03/08 04:28:35;;;;;;;15.43;13.83;;;;;;;;;;5050294;28;20502;-79
2022/03/08 04:31:02;;;;;;;19.30;14.57;;;;;;;;;;5050565;28;20449;-78
2022/03/08 04:33:29;;;;;;;24.80;16.13;;;;;;;;;;5050390;28;20441;-78
2022/03/08 04:35:57;;;;;;;16.57;13.43;;;;;;;;;;5050344;28;20477;-79
2022/03/08 04:38:24;;;;;;;20.30;14.70;;;;;;;;;;5050153;28;20469;-79
2022/03/08 04:40:52;;;;;;;17.80;14.70;;;;;;;;;;5050819;28;20437;-79
2022/03/08 04:43:19;;;;;;;17.97;15.30;;;;;;;;;;5050500;28;20453;-78
2022/03/08 04:45:46;;;;;;;17.10;14.00;;;;;;;;;;5051032;28;20437;-78
2022/03/08 04:48:13;;;;;;;16.10;14.40;;;;;;;;;;5050637;28;20445;-78
2022/03/08 04:50:40;;;;;;;18.13;14.33;;;;;;;;;;5050415;28;20437;-78
2022/03/08 04:53:07;;;;;;;16.93;15.00;;;;;;;;;;5049815;28;20457;-79
2022/03/08 04:55:34;;;;;;;19.40;15.83;;;;;;;;;;5050143;28;20555;-78
2022/03/08 04:58:03;;;;;;;21.27;15.50;;;;;;;;;;5051086;28;20797;-78
2022/03/08 05:00:30;;;;;;;17.90;14.20;;;;;;;;;;5050171;28;20449;-79
2022/03/08 05:02:57;;;;;;;18.67;15.27;;;;;;;;;;5050924;28;20473;-77
2022/03/08 05:05:25;;;;;;;18.50;15.40;;;;;;;;;;5050934;28;20450;-78
2022/03/08 05:07:52;;;;;;;17.77;13.77;;;;;;;;;;5050288;28;20441;-79
2022/03/08 05:10:19;;;;;;;19.77;14.97;;;;;;;;;;5049965;28;20446;-78
2022/03/08 05:12:46;;;;;;;17.90;15.20;;;;;;;;;;5050018;28;20476;-78
2022/03/08 05:15:14;;;;;;;17.77;15.30;;;;;;;;;;5050272;28;20477;-78
2022/03/08 05:17:41;;;;;;;18.93;15.07;;;;;;;;;;5049859;28;20937;-78
2022/03/08 05:20:09;;;;;;;17.33;14.20;;;;;;;;;;5050166;28;20504;-78
2022/03/08 05:22:36;;;;;;;21.40;14.80;;;;;;;;;;5050172;28;20462;-78
2022/03/08 05:25:03;;;;;;;18.40;14.90;;;;;;;;;;5049672;28;20925;-78
2022/03/08 05:27:30;;;;;;;21.10;15.73;;;;;;;;;;5049853;28;20441;-79
2022/03/08 05:29:57;;;;;;;21.27;15.20;;;;;;;;;;5049822;28;20449;-78
2022/03/08 05:32:25;;;;;;;19.07;15.53;;;;;;;;;;5049712;28;20457;-79
2022/03/08 05:34:52;;;;;;;18.47;14.30;;;;;;;;;;5049900;28;20477;-79
2022/03/08 05:37:19;;;;;;;19.93;15.10;;;;;;;;;;5051290;28;20457;-79
2022/03/08 05:39:46;;;;;;;19.43;15.10;;;;;;;;;;5043068;28;20547;-78
2022/03/08 05:42:13;;;;;;;23.77;15.33;;;;;;;;;;5033863;28;20459;-78
2022/03/08 05:44:40;;;;;;;17.57;14.17;;;;;;;;;;5045474;28;20460;-79
2022/03/08 05:47:07;;;;;;;17.37;15.20;;;;;;;;;;5053896;28;20854;-80
2022/03/08 05:49:36;;;;;;;18.77;14.70;;;;;;;;;;5053535;28;20913;-78
2022/03/08 05:52:03;;;;;;;18.40;13.70;;;;;;;;;;5048085;28;20481;-78
2022/03/08 05:54:30;;;;;;;18.30;14.33;;;;;;;;;;5033068;28;20474;-78
2022/03/08 05:56:57;;;;;;;17.40;14.20;;;;;;;;;;5033202;28;20450;-78
2022/03/08 05:59:24;;;;;;;15.57;13.77;;;;;;;;;;5033951;28;20510;-78
2022/03/08 06:01:51;;;;;;;18.90;14.17;;;;;;;;;;5041423;28;20466;-77
2022/03/08 06:04:18;;;;;;;17.70;14.43;;;;;;;;;;5043937;28;20450;-78
2022/03/08 06:06:46;;;;;;;17.13;14.33;;;;;;;;;;5034126;28;20458;-78
2022/03/08 06:09:13;;;;;;;17.00;14.20;;;;;;;;;;5034620;28;20438;-78
2022/03/08 06:11:41;;;;;;;16.13;13.70;;;;;;;;;;5034582;28;20467;-77
2022/03/08 06:14:08;;;;;;;16.37;13.50;;;;;;;;;;5038575;28;20488;-78
2022/03/08 06:16:35;;;;;;;17.00;15.20;;;;;;;;;;5042011;28;20860;-79
2022/03/08 06:19:02;;;;;;;18.80;14.67;;;;;;;;;;5033353;28;20548;-79
2022/03/08 06:21:29;;;;;;;17.63;14.27;;;;;;;;;;5035497;28;20451;-78
2022/03/08 06:23:57;;;;;;;18.90;14.27;;;;;;;;;;5035273;28;20450;-79
2022/03/08 06:26:24;;;;;;;21.70;16.30;;;;;;;;;;5035354;28;20550;-79
2022/03/08 06:28:51;;;;;;;21.43;14.83;;;;;;;;;;5034582;28;20462;-79
2022/03/08 06:31:18;;;;;;;18.33;14.00;;;;;;;;;;5033740;28;20966;-78
2022/03/08 06:33:45;;;;;;;24.20;15.50;;;;;;;;;;5033982;28;20564;-79
2022/03/08 06:36:12;;;;;;;19.37;14.50;;;;;;;;;;5033444;28;20504;-79
2022/03/08 06:38:39;;;;;;;19.47;14.13;;;;;;;;;;5033095;28;20565;-78
2022/03/08 06:41:08;;;;;;;15.93;13.10;;;;;;;;;;5033501;28;21012;-80
2022/03/08 06:43:35;;;;;;;17.57;13.30;;;;;;;;;;5034687;28;20828;-81
2022/03/08 06:46:02;;;;;;;15.20;13.30;;;;;;;;;;5034055;28;20443;-78
2022/03/08 06:48:29;;;;;;;14.97;12.70;;;;;;;;;;5032961;28;20542;-78
2022/03/08 06:50:56;;;;;;;18.00;13.70;;;;;;;;;;5033143;28;20442;-81
2022/03/08 06:53:23;;;;;;;22.57;18.00;;;;;;;;;;5033100;28;20837;-79
2022/03/08 06:55:50;;;;;;;17.00;13.90;;;;;;;;;;5033009;28;20486;-78
2022/03/08 06:58:18;;;;;;;17.60;13.00;;;;;;;;;;5033640;28;20442;-80
2022/03/08 07:00:45;;;;;;;21.33;14.30;;;;;;;;;;5033973;28;20450;-79
2022/03/08 07:03:13;;;;;;;17.23;12.87;;;;;;;;;;5034203;28;20501;-79
2022/03/08 07:05:40;;;;;;;15.70;12.93;;;;;;;;;;5033337;28;20534;-78
2022/03/08 07:08:07;;;;;;;14.03;12.47;;;;;;;;;;5033244;28;20450;-79
2022/03/08 07:10:34;;;;;;;14.67;11.90;;;;;;;;;;5033255;28;20442;-78
2022/03/08 07:13:01;;;;;;;15.80;12.43;;;;;;;;;;5033670;28;20472;-79
2022/03/08 07:15:30;;;;;;;14.67;12.13;;;;;;;;;;5033239;28;21099;-79
2022/03/08 07:17:57;;;;;;;15.07;12.03;;;;;;;;;;5033422;28;20462;-78
2022/03/08 07:20:24;;;;;;;17.73;13.13;;;;;;;;;;5033431;28;20450;-79
2022/03/08 07:22:51;;;;;;;13.17;11.53;;;;;;;;;;5033147;28;20552;-80
2022/03/08 07:25:18;;;;;;;15.23;12.10;;;;;;;;;;5032787;28;20442;-79
2022/03/08 07:27:45;;;;;;;13.90;11.33;;;;;;;;;;5032892;28;20766;-78
2022/03/08 07:30:12;;;;;;;13.53;11.07;;;;;;;;;;5033339;28;20440;-79
2022/03/08 07:32:41;;;;;;;13.83;12.07;;;;;;;;;;5035454;28;20880;-81
2022/03/08 07:35:08;;;;;;;13.40;11.40;;;;;;;;;;5035992;28;21305;-79
2022/03/08 07:37:36;;;;;;;14.87;11.63;;;;;;;;;;5036371;28;20496;-80
2022/03/08 07:40:05;;;;;;;14.57;11.97;;;;;;;;;;5034878;28;21102;-79
2022/03/08 07:42:32;;;;;;;11.30;10.30;;;;;;;;;;5033243;28;20538;-80
2022/03/08 07:44:59;;;;;;;11.77;10.60;;;;;;;;;;5036048;28;20439;-80
2022/03/08 07:47:26;;;;;;;11.80;10.80;;;;;;;;;;5039880;28;20562;-79
2022/03/08 07:49:54;;;;;;;11.37;10.27;;;;;;;;;;5042310;28;20451;-80
2022/03/08 07:52:21;;;;;;;12.33;10.70;;;;;;;;;;5036117;28;20516;-79
2022/03/08 07:54:48;;;;;;;11.53;10.40;;;;;;;;;;5038594;28;20463;-79
2022/03/08 07:57:16;;;;;;;13.70;12.30;;;;;;;;;;5043742;28;20466;-79
2022/03/08 07:59:43;;;;;;;13.57;11.70;;;;;;;;;;5045200;28;20443;-80
2022/03/08 08:02:10;;;;;;;15.23;13.13;;;;;;;;;;5041193;28;20465;-79
2022/03/08 08:04:37;;;;;;;13.03;11.67;;;;;;;;;;5033006;28;21106;-80
2022/03/08 08:07:06;;;;;;;13.30;12.00;;;;;;;;;;5033413;28;20442;-79
2022/03/08 08:09:33;;;;;;;15.87;11.87;;;;;;;;;;5033279;28;20434;-79
2022/03/08 08:12:00;;;;;;;13.63;11.60;;;;;;;;;;5032676;28;21008;-81
2022/03/08 08:14:28;;;;;;;14.67;13.17;;;;;;;;;;5032243;28;20454;-79
2022/03/08 08:16:55;;;;;;;14.60;11.40;;;;;;;;;;5031830;28;20893;-79
2022/03/08 08:19:22;;;;;;;13.30;11.93;;;;;;;;;;5035999;28;20438;-78
2022/03/08 08:21:49;;;;;;;13.60;12.20;;;;;;;;;;5035379;28;20454;-80
2022/03/08 08:24:17;;;;;;;15.57;12.67;;;;;;;;;;5032572;28;20449;-80
2022/03/08 08:26:44;;;;;;;12.67;11.33;;;;;;;;;;5031841;28;20449;-80
2022/03/08 08:29:11;;;;;;;13.60;12.07;;;;;;;;;;5031770;28;20446;-79
2022/03/08 08:31:38;;;;;;;13.70;11.90;;;;;;;;;;5043073;28;20527;-79
2022/03/08 08:34:06;;;;;;;13.23;11.83;;;;;;;;;;5058113;28;20594;-79
2022/03/08 08:36:33;;;;;;;14.37;12.47;;;;;;;;;;5059510;28;20497;-79
2022/03/08 08:39:00;;;;;;;13.93;12.63;;;;;;;;;;5051344;28;20827;-79
2022/03/08 08:41:28;;;;;;;12.60;11.30;;;;;;;;;;5051733;28;20457;-80
2022/03/08 08:43:55;;;;;;;12.27;11.07;;;;;;;;;;5051230;28;20944;-79
2022/03/08 08:46:23;;;;;;;13.70;11.53;;;;;;;;;;5032478;28;20439;-79
2022/03/08 08:48:50;;;;;;;14.30;12.80;;;;;;;;;;5032146;28;20930;-80
2022/03/08 08:51:17;;;;;;;14.53;13.13;;;;;;;;;;5031577;28;21132;-81
2022/03/08 08:53:44;;;;;;;11.10;10.00;;;;;;;;;;5031737;28;20807;-79
2022/03/08 08:56:11;;;;;;;12.10;10.90;;;;;;;;;;5031733;28;20492;-81
2022/03/08 08:58:39;;;;;;;12.13;10.93;;;;;;;;;;5031725;28;21136;-78
2022/03/08 09:01:06;;;;;;;11.17;10.13;;;;;;;;;;5031876;28;20447;-79
2022/03/08 09:03:33;;;;;;;10.70;9.63;;;;;;;;;;5031758;28;20462;-79
2022/03/08 09:06:00;;;;;;;10.97;9.97;;;;;;;;;;5049670;28;20445;-79
2022/03/08 09:08:27;;;;;;;10.00;9.10;;;;;;;;;;5052332;28;20456;-78
2022/03/08 09:10:55;;;;;;;11.03;9.13;;;;;;;;;;5051905;28;20439;-80
2022/03/08 09:13:23;;;;;;;9.83;9.03;;;;;;;;;;5051224;28;20456;-81
2022/03/08 09:15:51;;;;;;;11.60;10.50;;;;;;;;;;5050844;28;20487;-81
2022/03/08 09:18:18;;;;;;;10.43;9.53;;;;;;;;;;5052147;28;20456;-83
2022/03/08 09:20:46;;;;;;;10.37;9.47;;;;;;;;;;5047719;28;20785;-80
2022/03/08 09:23:13;;;;;;;9.53;8.63;;;;;;;;;;5050877;28;20468;-79
2022/03/08 09:25:40;;;;;;;10.87;9.90;;;;;;;;;;5051175;28;20460;-80
2022/03/08 09:28:07;;;;;;;9.40;8.60;;;;;;;;;;5051159;28;20832;-80
2022/03/08 09:30:35;;;;;;;11.30;10.10;;;;;;;;;;5038386;28;20873;-80
2022/03/08 09:33:03;;;;;;;11.23;10.13;;;;;;;;;;5051683;28;20531;-80
2022/03/08 09:35:31;;;;;;;9.40;8.57;;;;;;;;;;5052576;28;20452;-81
2022/03/08 09:37:58;;;;;;;10.47;9.57;;;;;;;;;;5052279;28;20563;-80
2022/03/08 09:40:25;;;;;;;9.73;8.93;;;;;;;;;;5053927;28;20802;-80
2022/03/08 09:42:53;;;;;;;9.93;7.97;;;;;;;;;;5060353;28;20824;-81
2022/03/08 09:45:20;;;;;;;9.70;8.90;;;;;;;;;;5062293;28;20445;-80
2022/03/08 09:47:47;;;;;;;9.10;8.30;;;;;;;;;;5054880;28;20507;-79
2022/03/08 09:50:16;;;;;;;11.60;8.53;;;;;;;;;;5053893;28;20429;-81
2022/03/08 09:52:44;;;;;;;9.43;8.60;;;;;;;;;;5052947;28;20461;-80
2022/03/08 09:55:12;;;;;;;9.57;8.63;;;;;;;;;;5053586;28;20453;-79
2022/03/08 09:57:39;;;;;;;9.53;8.63;;;;;;;;;;5053102;28;20508;-80
2022/03/08 10:00:08;;;;;;;10.30;9.30;;;;;;;;;;5053040;28;20449;-79
2022/03/08 10:02:45;;;;;;;9.23;8.43;;;;;;;;;;5052663;28;20477;-80
2022/03/08 10:05:12;;;;;;;10.27;9.27;;;;;;;;;;5053090;28;20510;-80
2022/03/08 10:07:40;;;;;;;10.23;9.40;;;;;;;;;;5051995;28;20441;-80
2022/03/08 10:10:07;;;;;;;9.47;8.67;;;;;;;;;;5052589;28;20453;-80
2022/03/08 10:12:34;;;;;;;10.23;8.80;;;;;;;;;;5052441;28;20462;-79
2022/03/08 10:15:17;;;;;;;9.30;8.50;;;;;;;;;;5051982;28;20449;-81
2022/03/08 10:17:44;;;;;;;9.07;8.23;;;;;;;;;;5052474;28;20484;-80
2022/03/08 10:20:12;;;;;;;9.20;8.40;;;;;;;;;;5052736;28;20463;-78
2022/03/08 10:22:43;;;;;;;10.67;7.60;;;;;;;;;;5052042;28;20505;-81
2022/03/08 10:25:12;;;;;;;8.70;7.90;;;;;;;;;;5055590;28;20453;-79
2022/03/08 10:27:42;;;;;;;8.10;7.47;;;;;;;;;;5054073;28;20450;-80
2022/03/08 10:30:12;;;;;;;8.33;7.60;;;;;;;;;;5067464;28;20436;-80
2022/03/08 10:32:39;;;;;;;8.50;7.70;;;;;;;;;;5051862;28;20477;-81
2022/03/08 10:35:07;;;;;;;7.60;6.90;;;;;;;;;;5047717;28;20437;-79
2022/03/08 10:37:36;;;;;;;7.80;7.20;;;;;;;;;;5057356;28;20477;-79
2022/03/08 10:40:05;;;;;;;7.63;6.93;;;;;;;;;;5059977;28;20456;-80
2022/03/08 10:42:33;;;;;;;8.60;7.07;;;;;;;;;;5059841;28;20485;-80
2022/03/08 10:47:58;;;;;;;8.83;7.80;;;;;;;;;;5058985;28;20481;-81
2022/03/08 10:50:25;;;;;;;7.43;6.80;;;;;;;;;;5057515;28;20450;-80
2022/03/08 10:52:54;;;;;;;8.60;7.80;;;;;;;;;;5061077;28;20464;-79
2022/03/08 10:55:23;;;;;;;8.00;7.27;;;;;;;;;;5061370;28;20446;-80
2022/03/08 10:57:53;;;;;;;7.87;7.07;;;;;;;;;;5061312;28;20485;-79
2022/03/08 11:00:23;;;;;;;13.57;7.30;;;;;;;;;;5060757;28;20937;-81
2022/03/08 11:02:54;;;;;;;8.50;7.20;;;;;;;;;;5060257;28;20500;-80
2022/03/08 11:05:21;;;;;;;7.47;6.87;;;;;;;;;;5072826;28;20448;-79
2022/03/08 11:10:32;;;;;;;7.80;7.10;;;;;;;;;;5033252;28;20455;-81
2022/03/08 11:12:59;;;;;;;7.77;7.13;;;;;;;;;;5035625;28;20458;-80
2022/03/08 11:15:27;;;;;;;10.00;7.00;;;;;;;;;;5035960;28;20450;-81
2022/03/08 11:17:54;;;;;;;7.10;6.50;;;;;;;;;;5035402;28;20482;-79
2022/03/08 11:20:23;;;;;;;7.57;6.83;;;;;;;;;;5045620;28;20822;-80
2022/03/08 11:22:53;;;;;;;6.63;6.10;;;;;;;;;;5056948;28;20531;-80
2022/03/08 11:25:24;;;;;;;7.10;6.40;;;;;;;;;;5062036;28;20480;-81
2022/03/08 11:27:53;;;;;;;7.27;6.67;;;;;;;;;;5062904;28;20487;-81
2022/03/08 11:30:21;;;;;;;7.77;7.07;;;;;;;;;;5065882;28;21007;-81
2022/03/08 11:32:52;;;;;;;7.30;6.60;;;;;;;;;;5064663;28;20489;-79
2022/03/08 11:35:23;;;;;;;7.10;6.50;;;;;;;;;;5063519;28;20442;-79
2022/03/08 11:37:51;;;;;;;7.93;6.37;;;;;;;;;;5064863;28;20607;-81
2022/03/08 11:40:18;;;;;;;6.63;6.03;;;;;;;;;;5066671;28;20465;-79
2022/03/08 11:42:46;;;;;;;6.47;5.90;;;;;;;;;;5056141;28;20461;-81
2022/03/08 11:45:22;;;;;;;6.80;6.20;;;;;;;;;;5071653;28;20532;-80
2022/03/08 11:47:57;;;;;;;7.33;6.63;;;;;;;;;;5076814;28;20437;-82
2022/03/08 11:50:27;;;;;;;7.23;6.67;;;;;;;;;;5075719;28;20531;-82
2022/03/08 11:53:09;;;;;;;7.03;6.50;;;;;;;;;;5079038;28;20497;-80
2022/03/08 11:55:37;;;;;;;7.53;6.90;;;;;;;;;;5074280;28;20460;-81
2022/03/08 11:58:05;;;;;;;7.43;6.83;;;;;;;;;;5076456;28;20476;-82
2022/03/08 12:00:44;;;;;;;7.80;7.00;;;;;;;;;;5075474;28;20480;-80
2022/03/08 12:03:12;;;;;;;8.50;7.70;;;;;;;;;;5074499;28;20910;-81
2022/03/08 12:05:57;;;;;;;7.33;6.50;;;;;;;;;;5059594;28;20449;-80
2022/03/08 12:08:42;;;;;;;7.53;6.83;;;;;;;;;;5054701;28;20472;-81
2022/03/08 12:11:15;;;;;;;8.23;7.53;;;;;;;;;;5054340;28;20426;-81
2022/03/08 12:13:43;;;;;;;7.87;7.10;;;;;;;;;;5055156;28;20450;-80
2022/03/08 12:16:15;;;;;;;7.40;6.80;;;;;;;;;;5054647;28;20457;-81
2022/03/08 12:18:42;;;;;;;7.80;7.10;;;;;;;;;;5054669;28;20814;-82
2022/03/08 12:21:24;;;;;;;7.80;7.10;;;;;;;;;;5054656;28;20457;-81
2022/03/08 12:23:52;;;;;;;9.20;7.77;;;;;;;;;;5051255;28;20952;-80
2022/03/08 12:26:26;;;;;;;8.50;7.70;;;;;;;;;;5053546;28;20441;-79
2022/03/08 12:29:08;;;;;;;8.10;7.50;;;;;;;;;;5053109;28;20468;-79
2022/03/08 12:31:57;;;;;;;7.80;7.10;;;;;;;;;;5036896;28;20466;-80
2022/03/08 12:34:36;;;;;;;8.90;8.00;;;;;;;;;;5073075;28;20835;-79
2022/03/08 12:37:03;;;;;;;8.50;7.70;;;;;;;;;;5072163;28;20483;-80
2022/03/08 12:39:46;;;;;;;8.33;7.63;;;;;;;;;;5073284;28;20452;-80
2022/03/08 12:42:21;;;;;;;8.57;7.67;;;;;;;;;;5073211;28;20483;-80
2022/03/08 12:44:52;;;;;;;8.60;7.70;;;;;;;;;;5073687;28;20444;-81
2022/03/08 12:47:20;;;;;;;8.03;7.33;;;;;;;;;;5072259;28;20440;-80
2022/03/08 12:49:48;;;;;;;8.40;7.70;;;;;;;;;;5074699;28;20432;-80
2022/03/08 12:52:15;;;;;;;8.40;7.70;;;;;;;;;;5074782;28;20465;-81
2022/03/08 12:54:44;;;;;;;10.23;7.80;;;;;;;;;;5074022;28;20970;-80
2022/03/08 12:57:11;;;;;;;7.90;7.20;;;;;;;;;;5073663;28;20485;-79
2022/03/08 12:59:46;;;;;;;8.00;7.20;;;;;;;;;;5073604;28;20449;-81
2022/03/08 13:02:13;;;;;;;8.50;7.77;;;;;;;;;;5073162;28;20444;-80
2022/03/08 13:04:43;;;;;;;8.50;7.80;;;;;;;;;;5066505;28;20450;-81
2022/03/08 13:07:11;;;;;;;8.53;7.03;;;;;;;;;;5053277;28;20499;-81
2022/03/08 13:09:58;;;;;;;8.03;7.30;;;;;;;;;;5053123;28;20870;-80
2022/03/08 13:12:26;;;;;;;7.80;7.10;;;;;;;;;;5047325;28;20470;-80
2022/03/08 13:15:06;;;;;;;8.10;7.40;;;;;;;;;;5052224;28;20441;-79
2022/03/08 13:17:33;;;;;;;6.73;6.13;;;;;;;;;;5052529;28;20469;-80
2022/03/08 13:20:02;;;;;;;7.50;6.80;;;;;;;;;;5052946;28;20476;-81
2022/03/08 13:22:29;;;;;;;6.97;6.30;;;;;;;;;;5052711;28;20462;-81
2022/03/08 13:25:09;;;;;;;9.23;6.43;;;;;;;;;;5053068;28;20499;-79
2022/03/08 13:28:00;;;;;;;6.67;6.17;;;;;;;;;;5052558;28;20466;-81
2022/03/08 13:30:28;;;;;;;6.33;5.93;;;;;;;;;;5033927;28;20453;-81
2022/03/08 13:33:11;;;;;;;9.80;6.60;;;;;;;;;;5052949;28;20454;-81
2022/03/08 13:35:41;;;;;;;7.47;6.80;;;;;;;;;;5052559;28;20450;-81
2022/03/08 13:38:10;;;;;;;8.37;7.57;;;;;;;;;;5052874;28;20484;-81
2022/03/08 13:40:37;;;;;;;8.07;7.27;;;;;;;;;;5052969;28;21026;-81
2022/03/08 13:43:04;;;;;;;6.97;6.40;;;;;;;;;;5053421;28;20470;-80
2022/03/08 13:45:31;;;;;;;6.93;6.23;;;;;;;;;;5061765;28;20449;-81
2022/03/08 13:47:59;;;;;;;9.17;6.83;;;;;;;;;;5058115;28;20445;-82
2022/03/08 13:50:28;;;;;;;7.03;6.43;;;;;;;;;;5065998;28;20464;-81
2022/03/08 13:52:57;;;;;;;9.00;7.43;;;;;;;;;;5057973;28;20469;-82
2022/03/08 13:55:28;;;;;;;7.57;6.87;;;;;;;;;;5052740;28;20449;-79
2022/03/08 13:57:56;;;;;;;7.30;6.70;;;;;;;;;;5052704;28;20508;-81
2022/03/08 14:00:23;;;;;;;7.93;7.33;;;;;;;;;;5060643;28;20458;-80
2022/03/08 14:02:55;;;;;;;7.00;6.43;;;;;;;;;;5063936;28;20473;-80
2022/03/08 14:05:22;;;;;;;7.00;6.40;;;;;;;;;;5063630;28;20460;-81
2022/03/08 14:07:57;;;;;;;7.47;6.90;;;;;;;;;;5068510;28;20845;-81
2022/03/08 14:10:24;;;;;;;6.90;6.30;;;;;;;;;;5057851;28;20452;-79
2022/03/08 14:12:52;;;;;;;7.03;6.37;;;;;;;;;;5058688;28;20505;-81
2022/03/08 14:15:19;;;;;;;7.87;7.03;;;;;;;;;;5056402;28;20949;-80
2022/03/08 14:17:46;;;;;;;9.20;6.30;;;;;;;;;;5057380;28;20477;-81
2022/03/08 14:20:14;;;;;;;8.20;7.40;;;;;;;;;;5056401;28;20456;-82
2022/03/08 14:22:56;;;;;;;7.70;7.00;;;;;;;;;;5056107;28;20548;-80
2022/03/08 14:25:25;;;;;;;9.20;8.23;;;;;;;;;;5055773;28;20444;-79
2022/03/08 14:27:52;;;;;;;8.07;7.30;;;;;;;;;;5055679;28;20445;-81
2022/03/08 14:30:22;;;;;;;8.23;7.53;;;;;;;;;;5056136;28;20433;-80
2022/03/08 14:32:49;;;;;;;8.47;7.67;;;;;;;;;;5055954;28;20485;-79
2022/03/08 14:35:18;;;;;;;8.37;7.63;;;;;;;;;;5056105;28;20437;-80
2022/03/08 14:37:45;;;;;;;8.73;7.83;;;;;;;;;;5055957;28;20505;-80